createdAt,value
2022-10-23T00:01:58.576Z,99461.50
2022-10-23T00:04:26.597Z,99452.66
2022-10-23T00:06:54.257Z,99455.88
2022-10-23T00:09:23.509Z,99467.88
2022-10-23T00:11:52.070Z,99456.47
2022-10-23T00:14:23.178Z,99453.81
2022-10-23T00:16:50.656Z,99445.66
2022-10-23T00:19:18.283Z,99448.84
2022-10-23T00:21:45.724Z,99445.75
2022-10-23T00:24:13.203Z,99433.19
2022-10-23T00:26:40.825Z,99436.53
2022-10-23T00:29:09.340Z,99435.06
2022-10-23T00:31:38.339Z,99428.13
2022-10-23T00:34:08.594Z,99419.72
2022-10-23T00:36:36.251Z,99419.16
2022-10-23T00:39:03.903Z,99416.63
2022-10-23T00:41:32.691Z,99415.25
2022-10-23T00:44:07.549Z,99398.41
2022-10-23T00:46:35.768Z,99417.91
2022-10-23T00:49:05.638Z,99408.00
2022-10-23T00:51:37.122Z,99409.84
2022-10-23T00:54:24.032Z,99392.78
2022-10-23T00:56:55.321Z,99386.09
2022-10-23T00:59:22.630Z,99381.03
2022-10-23T01:01:50.320Z,99378.84
2022-10-23T01:04:19.407Z,99379.41
2022-10-23T01:06:56.080Z,99373.59
2022-10-23T01:09:29.579Z,99383.13
2022-10-23T01:12:01.112Z,99368.38
2022-10-23T01:14:33.422Z,99371.88
2022-10-23T01:17:06.274Z,99371.06
2022-10-23T01:19:50.485Z,99365.41
2022-10-23T01:22:37.899Z,99363.13
2022-10-23T01:25:19.635Z,99360.84
2022-10-23T01:27:53.916Z,99352.63
2022-10-23T01:30:21.641Z,99356.47
2022-10-23T01:32:54.169Z,99351.06
2022-10-23T01:35:29.002Z,99355.34
2022-10-23T01:38:06.746Z,99353.63
2022-10-23T01:40:37.730Z,99349.16
2022-10-23T01:43:12.177Z,99345.47
2022-10-23T01:45:43.309Z,99347.34
2022-10-23T01:48:19.682Z,99357.13
2022-10-23T01:50:49.283Z,99345.63
2022-10-23T01:53:17.526Z,99344.34
2022-10-23T01:55:47.255Z,99347.25
2022-10-23T01:58:23.393Z,99347.34
2022-10-23T02:00:52.945Z,99352.88
2022-10-23T02:03:21.645Z,99349.88
2022-10-23T02:05:49.423Z,99346.66
2022-10-23T02:08:16.835Z,99343.44
2022-10-23T02:10:50.103Z,99345.88
2022-10-23T02:13:28.715Z,99336.75
2022-10-23T02:16:03.713Z,99333.91
2022-10-23T02:18:38.178Z,99324.91
2022-10-23T02:21:10.914Z,99334.25
2022-10-23T02:23:40.359Z,99336.06
2022-10-23T02:26:13.337Z,99337.09
2022-10-23T02:28:47.403Z,99325.03
2022-10-23T02:31:18.064Z,99334.56
2022-10-23T02:33:47.340Z,99328.13
2022-10-23T02:36:15.699Z,99337.44
2022-10-23T02:38:45.125Z,99325.91
2022-10-23T02:41:23.202Z,99324.78
2022-10-23T02:44:03.564Z,99328.22
2022-10-23T02:46:40.123Z,99318.53
2022-10-23T02:49:13.611Z,99326.84
2022-10-23T02:51:52.234Z,99312.34
2022-10-23T02:54:37.222Z,99319.00
2022-10-23T02:57:12.221Z,99324.28
2022-10-23T02:59:47.468Z,99319.47
2022-10-23T03:02:21.360Z,99318.75
2022-10-23T03:04:50.950Z,99313.47
2022-10-23T03:07:19.935Z,99318.28
2022-10-23T03:09:47.781Z,99313.47
2022-10-23T03:12:15.413Z,99310.13
2022-10-23T03:14:44.149Z,99302.97
2022-10-23T03:17:11.505Z,99304.94
2022-10-23T03:19:38.889Z,99301.69
2022-10-23T03:22:06.330Z,99296.06
2022-10-23T03:24:33.615Z,99295.25
2022-10-23T03:27:00.899Z,99292.72
2022-10-23T03:29:32.864Z,99289.50
2022-10-23T03:32:01.704Z,99285.47
2022-10-23T03:34:29.053Z,99285.56
2022-10-23T03:36:56.514Z,99293.38
2022-10-23T03:39:23.796Z,99286.25
2022-10-23T03:42:09.833Z,99284.91
2022-10-23T03:44:37.225Z,99288.44
2022-10-23T03:47:06.344Z,99286.25
2022-10-23T03:49:33.529Z,99277.97
2022-10-23T03:52:05.601Z,99278.66
2022-10-23T03:54:33.938Z,99278.19
2022-10-23T03:57:01.958Z,99273.56
2022-10-23T03:59:29.367Z,99264.75
2022-10-23T04:01:56.855Z,99267.81
2022-10-23T04:04:26.713Z,99273.56
2022-10-23T04:06:54.264Z,99261.97
2022-10-23T04:09:22.213Z,99263.00
2022-10-23T04:11:49.576Z,99257.94
2022-10-23T04:14:17.495Z,99262.88
2022-10-23T04:16:44.749Z,99257.94
2022-10-23T04:19:12.123Z,99261.38
2022-10-23T04:21:40.747Z,99263.09
2022-10-23T04:24:08.282Z,99253.09
2022-10-23T04:26:35.527Z,99255.28
2022-10-23T04:29:02.858Z,99248.53
2022-10-23T04:31:30.455Z,99245.09
2022-10-23T04:33:57.927Z,99238.41
2022-10-23T04:36:36.253Z,99235.88
2022-10-23T04:39:14.749Z,99232.22
2022-10-23T04:41:42.116Z,99234.84
2022-10-23T04:44:09.335Z,99231.94
2022-10-23T04:46:39.711Z,99240.31
2022-10-23T04:49:07.109Z,99237.78
2022-10-23T04:51:59.778Z,99237.69
2022-10-23T04:54:40.733Z,99241.03
2022-10-23T04:57:28.243Z,99240.81
2022-10-23T05:00:01.656Z,99239.78
2022-10-23T05:02:35.514Z,99231.06
2022-10-23T05:05:03.794Z,99235.56
2022-10-23T05:07:34.164Z,99241.53
2022-10-23T05:10:29.787Z,99242.31
2022-10-23T05:13:06.213Z,99241.31
2022-10-23T05:15:33.783Z,99242.81
2022-10-23T05:18:08.954Z,99218.91
2022-10-23T05:20:38.073Z,99237.53
2022-10-23T05:23:09.630Z,99235.03
2022-10-23T05:25:38.436Z,99233.78
2022-10-23T05:28:14.896Z,99225.25
2022-10-23T05:30:42.997Z,99228.38
2022-10-23T05:33:11.659Z,99226.44
2022-10-23T05:35:43.913Z,99223.47
2022-10-23T05:38:13.483Z,99215.97
2022-10-23T05:40:42.759Z,99212.75
2022-10-23T05:43:15.270Z,99211.84
2022-10-23T05:45:59.419Z,99210.00
2022-10-23T05:48:45.794Z,99213.34
2022-10-23T05:51:18.054Z,99205.66
2022-10-23T05:53:55.575Z,99214.84
2022-10-23T05:56:48.364Z,99222.19
2022-10-23T05:59:23.066Z,99216.56
2022-10-23T06:01:50.872Z,99213.44
2022-10-23T06:04:40.857Z,99206.56
2022-10-23T06:07:11.390Z,99203.22
2022-10-23T06:09:39.136Z,99203.94
2022-10-23T06:12:08.693Z,99200.34
2022-10-23T06:14:35.878Z,99199.19
2022-10-23T06:17:03.752Z,99196.47
2022-10-23T06:19:32.703Z,99184.47
2022-10-23T06:21:59.956Z,99187.81
2022-10-23T06:24:44.057Z,99193.47
2022-10-23T06:27:15.271Z,99176.44
2022-10-23T06:29:44.391Z,99174.72
2022-10-23T06:32:12.306Z,99182.19
2022-10-23T06:34:41.774Z,99175.19
2022-10-23T06:37:09.759Z,99180.78
2022-10-23T06:39:50.160Z,99175.53
2022-10-23T06:42:29.566Z,99173.00
2022-10-23T06:44:57.189Z,99173.00
2022-10-23T06:47:43.582Z,99166.88
2022-10-23T06:50:31.231Z,99155.03
2022-10-23T06:53:00.764Z,99152.03
2022-10-23T06:55:30.300Z,99151.94
2022-10-23T06:57:59.474Z,99156.63
2022-10-23T07:00:27.006Z,99142.13
2022-10-23T07:02:55.286Z,99143.47
2022-10-23T07:05:23.311Z,99143.47
2022-10-23T07:07:51.056Z,99138.88
2022-10-23T07:10:24.785Z,99138.66
2022-10-23T07:13:01.147Z,99135.88
2022-10-23T07:15:40.921Z,99130.00
2022-10-23T07:18:14.711Z,99123.91
2022-10-23T07:21:00.525Z,99114.06
2022-10-23T07:23:29.777Z,99113.03
2022-10-23T07:26:02.378Z,99121.56
2022-10-23T07:28:31.444Z,99114.50
2022-10-23T07:30:59.855Z,99105.44
2022-10-23T07:33:42.826Z,99111.50
2022-10-23T07:36:17.118Z,99111.38
2022-10-23T07:38:45.118Z,99115.28
2022-10-23T07:41:13.257Z,99110.22
2022-10-23T07:43:41.995Z,99110.91
2022-10-23T07:46:10.050Z,99097.19
2022-10-23T07:48:40.391Z,99101.44
2022-10-23T07:51:11.188Z,99098.31
2022-10-23T07:53:47.552Z,99102.75
2022-10-23T07:56:38.381Z,99100.53
2022-10-23T07:59:19.186Z,99106.94
2022-10-23T08:01:55.951Z,99105.44
2022-10-23T08:04:28.224Z,99113.84
2022-10-23T08:07:02.255Z,99116.28
2022-10-23T08:09:38.150Z,99116.00
2022-10-23T08:12:06.140Z,99110.72
2022-10-23T08:14:34.866Z,99115.53
2022-10-23T08:20:13.824Z,99112.94
2022-10-23T08:22:43.767Z,99109.47
2022-10-23T08:25:13.470Z,99100.50
2022-10-23T08:27:41.116Z,99102.53
2022-10-23T08:30:12.101Z,99098.16
2022-10-23T08:32:39.570Z,99109.75
2022-10-23T08:35:07.544Z,99102.94
2022-10-23T08:37:34.778Z,99102.03
2022-10-23T08:40:03.402Z,99100.19
2022-10-23T08:43:01.566Z,99095.66
2022-10-23T08:45:40.610Z,99084.44
2022-10-23T08:48:18.803Z,99092.91
2022-10-23T08:51:19.957Z,99079.72
2022-10-23T08:53:52.874Z,99074.63
2022-10-23T08:56:28.235Z,99075.75
2022-10-23T08:59:00.470Z,99065.31
2022-10-23T09:01:37.871Z,99070.41
2022-10-23T09:04:05.551Z,99082.03
2022-10-23T09:06:38.918Z,99070.41
2022-10-23T09:09:40.005Z,99062.53
2022-10-23T09:12:11.619Z,99049.84
2022-10-23T09:15:03.414Z,99054.00
2022-10-23T09:17:34.643Z,99054.66
2022-10-23T09:20:13.053Z,99055.31
2022-10-23T09:22:42.134Z,99052.53
2022-10-23T09:25:11.050Z,99053.19
2022-10-23T09:27:46.160Z,99045.34
2022-10-23T09:30:24.746Z,99050.44
2022-10-23T09:32:53.520Z,99049.63
2022-10-23T09:35:22.658Z,99039.19
2022-10-23T09:37:53.299Z,99041.63
2022-10-23T09:40:29.974Z,99042.28
2022-10-23T09:43:00.090Z,99038.16
2022-10-23T09:45:31.387Z,99033.06
2022-10-23T09:48:22.045Z,99031.47
2022-10-23T09:50:51.878Z,99033.88
2022-10-23T09:53:25.306Z,99026.00
2022-10-23T09:55:54.466Z,99022.00
2022-10-23T09:58:27.817Z,99028.25
2022-10-23T10:00:55.497Z,99030.53
2022-10-23T10:03:49.343Z,99023.16
2022-10-23T10:06:23.799Z,99016.22
2022-10-23T10:08:54.725Z,99016.09
2022-10-23T10:11:28.185Z,99011.97
2022-10-23T10:14:04.742Z,99001.69
2022-10-23T10:16:42.783Z,99004.63
2022-10-23T10:19:32.315Z,99001.03
2022-10-23T10:22:09.041Z,99005.16
2022-10-23T10:24:45.425Z,99001.94
2022-10-23T10:27:22.853Z,98995.03
2022-10-23T10:30:03.722Z,99000.75
2022-10-23T10:32:38.954Z,98998.59
2022-10-23T10:35:20.931Z,98992.31
2022-10-23T10:38:03.171Z,98990.75
2022-10-23T10:40:33.585Z,98987.41
2022-10-23T10:43:24.578Z,98974.31
2022-10-23T10:46:00.584Z,98988.63
2022-10-23T10:48:41.422Z,98987.66
2022-10-23T10:51:36.488Z,98981.00
2022-10-23T10:54:30.819Z,98964.97
2022-10-23T10:57:02.496Z,98970.84
2022-10-23T10:59:32.255Z,98968.97
2022-10-23T11:02:05.882Z,98959.75
2022-10-23T11:04:39.717Z,98949.06
2022-10-23T11:07:13.706Z,98948.94
2022-10-23T11:09:43.355Z,98948.94
2022-10-23T11:12:18.823Z,98944.94
2022-10-23T11:14:46.486Z,98933.84
2022-10-23T11:17:19.197Z,98939.63
2022-10-23T11:19:49.798Z,98934.38
2022-10-23T11:22:26.368Z,98921.97
2022-10-23T11:25:22.299Z,98931.84
2022-10-23T11:28:07.190Z,98928.66
2022-10-23T11:30:48.775Z,98924.50
2022-10-23T11:33:52.152Z,98919.56
2022-10-23T11:36:40.194Z,98915.28
2022-10-23T11:39:19.072Z,98918.75
2022-10-23T11:41:52.661Z,98911.56
2022-10-23T11:44:26.885Z,98911.44
2022-10-23T11:47:02.480Z,98909.41
2022-10-23T11:49:29.795Z,98902.78
2022-10-23T11:52:01.257Z,98905.97
2022-10-23T11:54:30.231Z,98904.09
2022-10-23T11:57:12.997Z,98897.94
2022-10-23T11:59:52.711Z,98894.88
2022-10-23T12:02:26.978Z,98887.25
2022-10-23T12:04:55.185Z,98888.88
2022-10-23T12:07:27.024Z,98886.97
2022-10-23T12:09:58.207Z,98889.38
2022-10-23T12:12:32.335Z,98890.19
2022-10-23T12:15:26.304Z,98894.06
2022-10-23T12:17:55.999Z,98881.78
2022-10-23T12:20:38.260Z,98864.16
2022-10-23T12:23:47.281Z,98878.41
2022-10-23T12:26:54.376Z,98872.53
2022-10-23T12:29:32.924Z,98863.19
2022-10-23T12:32:16.580Z,98870.00
2022-10-23T12:34:50.697Z,98871.91
2022-10-23T12:37:49.647Z,98870.97
2022-10-23T12:40:16.891Z,98865.22
2022-10-23T12:42:53.119Z,98865.88
2022-10-23T12:45:24.142Z,98857.31
2022-10-23T12:47:52.732Z,98862.38
2022-10-23T12:50:22.190Z,98870.00
2022-10-23T12:52:54.086Z,98859.03
2022-10-23T12:55:22.224Z,98857.06
2022-10-23T12:57:51.491Z,98849.56
2022-10-23T13:00:21.935Z,98851.97
2022-10-23T13:02:58.650Z,98844.22
2022-10-23T13:05:26.936Z,98852.25
2022-10-23T13:07:54.881Z,98838.63
2022-10-23T13:10:33.462Z,98839.44
2022-10-23T13:13:13.022Z,98838.50
2022-10-23T13:15:42.286Z,98834.34
2022-10-23T13:18:11.474Z,98840.50
2022-10-23T13:20:41.499Z,98830.38
2022-10-23T13:23:18.876Z,98821.78
2022-10-23T13:25:54.788Z,98823.00
2022-10-23T13:28:26.135Z,98820.34
2022-10-23T13:31:06.269Z,98827.16
2022-10-23T13:33:37.267Z,98811.53
2022-10-23T13:36:07.745Z,98818.88
2022-10-23T13:38:37.096Z,98816.31
2022-10-23T13:41:11.796Z,98808.19
2022-10-23T13:43:41.234Z,98811.63
2022-10-23T13:46:14.104Z,98814.19
2022-10-23T13:48:41.312Z,98817.53
2022-10-23T13:51:13.484Z,98818.19
2022-10-23T13:53:40.749Z,98813.91
2022-10-23T13:56:11.363Z,98813.00
2022-10-23T13:58:40.236Z,98811.09
2022-10-23T14:01:22.499Z,98809.22
2022-10-23T14:03:49.885Z,98805.72
2022-10-23T14:06:17.777Z,98804.28
2022-10-23T14:08:45.305Z,98802.41
2022-10-23T14:13:44.193Z,98802.25
2022-10-23T14:16:13.475Z,98801.31
2022-10-23T14:18:40.974Z,98804.66
2022-10-23T14:21:10.385Z,98803.75
2022-10-23T14:23:37.678Z,98801.72
2022-10-23T14:26:06.177Z,98795.41
2022-10-23T14:28:34.103Z,98800.50
2022-10-23T14:31:05.823Z,98792.75
2022-10-23T14:33:33.454Z,98791.81
2022-10-23T14:36:00.845Z,98792.63
2022-10-23T14:38:28.471Z,98792.63
2022-10-23T14:40:55.702Z,98794.34
2022-10-23T14:43:23.642Z,98796.09
2022-10-23T14:45:51.163Z,98792.22
2022-10-23T14:48:19.933Z,98780.34
2022-10-23T14:50:49.004Z,98779.53
2022-10-23T14:53:16.683Z,98769.38
2022-10-23T14:55:43.882Z,98778.75
2022-10-23T14:58:11.130Z,98765.13
2022-10-23T15:00:39.579Z,98768.28
2022-10-23T15:03:06.811Z,98765.63
2022-10-23T15:05:35.441Z,98769.78
2022-10-23T15:08:02.738Z,98768.81
2022-10-23T15:10:30.103Z,98756.13
2022-10-23T15:12:57.290Z,98755.69
2022-10-23T15:15:24.753Z,98753.94
2022-10-23T15:17:52.085Z,98746.34
2022-10-23T15:20:19.315Z,98753.03
2022-10-23T15:22:47.927Z,98751.28
2022-10-23T15:25:17.910Z,98747.94
2022-10-23T15:27:45.733Z,98750.22
2022-10-23T15:30:13.391Z,98746.56
2022-10-23T15:32:41.313Z,98750.06
2022-10-23T15:35:08.837Z,98748.19
2022-10-23T15:37:36.518Z,98747.69
2022-10-23T15:40:05.786Z,98744.47
2022-10-23T15:42:33.054Z,98741.94
2022-10-23T15:45:00.342Z,98751.16
2022-10-23T15:47:27.693Z,98746.72
2022-10-23T15:49:54.929Z,98747.38
2022-10-23T15:52:22.444Z,98744.84
2022-10-23T15:54:50.165Z,98753.78
2022-10-23T15:57:18.771Z,98743.91
2022-10-23T15:59:46.404Z,98748.69
2022-10-23T16:02:13.911Z,98747.25
2022-10-23T16:04:41.398Z,98744.53
2022-10-23T16:07:09.067Z,98748.56
2022-10-23T16:09:37.447Z,98742.69
2022-10-23T16:12:05.207Z,98748.44
2022-10-23T16:14:33.901Z,98743.06
2022-10-23T16:17:01.053Z,98748.00
2022-10-23T16:19:28.346Z,98737.66
2022-10-23T16:21:55.656Z,98735.94
2022-10-23T16:24:22.958Z,98735.00
2022-10-23T16:26:53.344Z,98732.09
2022-10-23T16:29:22.218Z,98728.75
2022-10-23T16:31:51.178Z,98724.47
2022-10-23T16:34:18.623Z,98725.28
2022-10-23T16:36:47.090Z,98719.53
2022-10-23T16:39:16.477Z,98723.25
2022-10-23T16:42:12.854Z,98718.16
2022-10-23T16:44:54.486Z,98714.56
2022-10-23T16:47:23.327Z,98714.41
2022-10-23T16:49:50.565Z,98698.50
2022-10-23T16:52:17.971Z,98706.00
2022-10-23T16:54:45.435Z,98705.06
2022-10-23T16:57:12.657Z,98699.97
2022-10-23T16:59:40.205Z,98700.66
2022-10-23T17:02:08.232Z,98700.66
2022-10-23T17:04:37.916Z,98704.78
2022-10-23T17:07:06.154Z,98697.53
2022-10-23T17:09:33.946Z,98698.75
2022-10-23T17:12:01.482Z,98692.59
2022-10-23T17:14:31.947Z,98701.94
2022-10-23T17:17:01.750Z,98697.81
2022-10-23T17:19:47.050Z,98703.56
2022-10-23T17:22:16.157Z,98684.84
2022-10-23T17:24:46.289Z,98687.38
2022-10-23T17:27:16.441Z,98688.31
2022-10-23T17:29:43.676Z,98683.38
2022-10-23T17:32:11.151Z,98679.09
2022-10-23T17:34:38.531Z,98667.88
2022-10-23T17:37:05.968Z,98678.28
2022-10-23T17:39:34.721Z,98665.47
2022-10-23T17:42:02.123Z,98668.94
2022-10-23T17:44:29.375Z,98659.06
2022-10-23T17:46:56.883Z,98662.56
2022-10-23T17:49:25.169Z,98653.34
2022-10-23T17:51:54.200Z,98644.91
2022-10-23T17:54:22.492Z,98648.91
2022-10-23T17:56:51.390Z,98644.09
2022-10-23T17:59:21.940Z,98651.72
2022-10-23T18:01:49.932Z,98650.13
2022-10-23T18:04:19.319Z,98632.63
2022-10-23T18:06:49.387Z,98645.97
2022-10-23T18:09:17.450Z,98634.75
2022-10-23T18:11:48.244Z,98635.81
2022-10-23T18:14:17.963Z,98628.34
2022-10-23T18:16:46.101Z,98630.09
2022-10-23T18:19:14.073Z,98631.41
2022-10-23T18:21:41.479Z,98623.13
2022-10-23T18:24:08.835Z,98629.16
2022-10-23T18:26:39.336Z,98623.69
2022-10-23T18:29:08.630Z,98622.47
2022-10-23T18:31:37.664Z,98617.38
2022-10-23T18:34:07.738Z,98609.63
2022-10-23T18:36:37.344Z,98614.19
2022-10-23T18:39:05.847Z,98619.25
2022-10-23T18:41:34.181Z,98621.63
2022-10-23T18:44:01.538Z,98623.34
2022-10-23T18:46:29.234Z,98614.00
2022-10-23T18:48:58.252Z,98616.41
2022-10-23T18:51:27.765Z,98620.38
2022-10-23T18:53:55.441Z,98620.53
2022-10-23T18:56:26.104Z,98604.50
2022-10-23T18:58:55.056Z,98618.84
2022-10-23T19:01:23.877Z,98609.63
2022-10-23T19:03:51.421Z,98605.22
2022-10-23T19:06:21.298Z,98598.84
2022-10-23T19:08:49.119Z,98597.94
2022-10-23T19:11:18.644Z,98591.22
2022-10-23T19:13:46.007Z,98603.91
2022-10-23T19:16:19.606Z,98594.97
2022-10-23T19:18:50.663Z,98597.88
2022-10-23T19:21:20.348Z,98594.69
2022-10-23T19:23:49.824Z,98592.78
2022-10-23T19:26:17.656Z,98596.13
2022-10-23T19:28:47.337Z,98596.94
2022-10-23T19:31:14.849Z,98594.25
2022-10-23T19:33:42.066Z,98591.56
2022-10-23T19:36:13.935Z,98583.78
2022-10-23T19:38:41.885Z,98585.53
2022-10-23T19:41:11.579Z,98577.91
2022-10-23T19:43:39.172Z,98577.63
2022-10-23T19:46:10.951Z,98580.31
2022-10-23T19:48:44.618Z,98570.94
2022-10-23T19:51:13.490Z,98584.31
2022-10-23T19:53:42.119Z,98583.34
2022-10-23T19:56:12.462Z,98574.91
2022-10-23T19:58:40.724Z,98583.66
2022-10-23T20:01:12.727Z,98578.56
2022-10-23T20:03:41.235Z,98579.22
2022-10-23T20:06:10.210Z,98574.50
2022-10-23T20:08:37.518Z,98572.59
2022-10-23T20:11:05.207Z,98573.53
2022-10-23T20:13:33.899Z,98568.44
2022-10-23T20:16:01.058Z,98561.00
2022-10-23T20:18:28.610Z,98568.75
2022-10-23T20:20:55.954Z,98554.16
2022-10-23T20:23:23.257Z,98545.44
2022-10-23T20:25:50.498Z,98551.94
2022-10-23T20:28:18.314Z,98554.50
2022-10-23T20:30:46.960Z,98548.31
2022-10-23T20:33:14.422Z,98551.94
2022-10-23T20:35:42.543Z,98552.25
2022-10-23T20:38:10.296Z,98553.84
2022-10-23T20:40:38.321Z,98554.22
2022-10-23T20:43:05.887Z,98547.88
2022-10-23T20:45:34.092Z,98546.97
2022-10-23T20:48:02.804Z,98544.44
2022-10-23T20:50:30.115Z,98534.25
2022-10-23T20:52:57.446Z,98536.19
2022-10-23T20:55:24.836Z,98542.47
2022-10-23T20:57:52.096Z,98532.28
2022-10-23T21:00:22.059Z,98541.16
2022-10-23T21:02:52.084Z,98536.69
2022-10-23T21:05:21.115Z,98538.31
2022-10-23T21:07:48.280Z,98538.31
2022-10-23T21:10:15.516Z,98534.50
2022-10-23T21:12:43.080Z,98535.97
2022-10-23T21:15:10.671Z,98538.03
2022-10-23T21:17:40.714Z,98531.34
2022-10-23T21:20:08.509Z,98539.25
2022-10-23T21:22:37.101Z,98531.00
2022-10-23T21:25:04.931Z,98535.75
2022-10-23T21:27:32.385Z,98531.81
2022-10-23T21:29:59.688Z,98541.88
2022-10-23T21:32:26.995Z,98541.88
2022-10-23T21:34:55.229Z,98537.28
2022-10-23T21:37:25.077Z,98539.22
2022-10-23T21:39:53.782Z,98538.44
2022-10-23T21:42:21.270Z,98541.63
2022-10-23T21:44:48.600Z,98532.75
2022-10-23T21:47:15.927Z,98528.94
2022-10-23T21:49:43.236Z,98530.22
2022-10-23T21:52:10.508Z,98535.03
2022-10-23T21:54:37.890Z,98533.28
2022-10-23T21:57:13.908Z,98535.03
2022-10-23T21:59:41.171Z,98531.69
2022-10-23T22:02:09.514Z,98534.22
2022-10-23T22:04:37.970Z,98533.56
2022-10-23T22:07:06.269Z,98536.44
2022-10-23T22:09:34.297Z,98540.38
2022-10-23T22:12:01.635Z,98538.44
2022-10-23T22:14:30.395Z,98536.88
2022-10-23T22:16:57.932Z,98541.63
2022-10-23T22:19:25.634Z,98542.28
2022-10-23T22:21:52.878Z,98542.91
2022-10-23T22:24:20.578Z,98540.09
2022-10-23T22:26:49.811Z,98545.31
2022-10-23T22:29:19.649Z,98544.50
2022-10-23T22:31:50.088Z,98538.84
2022-10-23T22:34:27.155Z,98527.38
2022-10-23T22:37:07.384Z,98534.84
2022-10-23T22:39:34.550Z,98539.44
2022-10-23T22:42:01.987Z,98544.84
2022-10-23T22:44:29.375Z,98546.22
2022-10-23T22:46:58.108Z,98548.56
2022-10-23T22:49:25.489Z,98549.50
2022-10-23T22:51:52.715Z,98544.75
2022-10-23T22:54:20.198Z,98545.19
2022-10-23T22:56:47.482Z,98545.66
2022-10-23T22:59:14.669Z,98546.25
2022-10-23T23:01:43.813Z,98528.75
2022-10-23T23:04:32.936Z,98533.19
2022-10-23T23:07:00.992Z,98531.44
2022-10-23T23:09:28.537Z,98529.03
2022-10-23T23:11:55.725Z,98525.22
2022-10-23T23:14:24.437Z,98538.38
2022-10-23T23:16:52.141Z,98542.66
2022-10-23T23:19:23.055Z,98535.03
2022-10-23T23:21:50.431Z,98534.09
2022-10-23T23:24:17.893Z,98520.78
2022-10-23T23:26:45.111Z,98520.97
2022-10-23T23:29:12.925Z,98524.31
2022-10-23T23:31:40.440Z,98523.22
2022-10-23T23:34:07.663Z,98526.53
2022-10-23T23:36:36.358Z,98523.16
2022-10-23T23:41:37.638Z,98535.69
2022-10-23T23:44:05.229Z,98541.41
2022-10-23T23:46:32.459Z,98538.84
2022-10-23T23:48:59.821Z,98543.13
2022-10-23T23:51:27.183Z,98557.94
2022-10-23T23:53:55.931Z,98545.22
2022-10-23T23:56:23.270Z,98549.50
2022-10-23T23:58:50.499Z,98546.47
